sensor_id;sensor_type;location;lat;lon;timestamp;P1;durP1;ratioP1;P2;durP2;ratioP2
23539;SDS011;11947;50.810;4.394;2022-11-20T00:00:16;179.98;;;51.25;;
23539;SDS011;11947;50.810;4.394;2022-11-20T00:02:41;179.63;;;50.22;;
23539;SDS011;11947;50.810;4.394;2022-11-20T00:08:41;183.93;;;51.97;;
23539;SDS011;11947;50.810;4.394;2022-11-20T00:11:12;186.40;;;51.40;;
23539;SDS011;11947;50.810;4.394;2022-11-20T00:13:41;176.85;;;51.05;;
23539;SDS011;11947;50.810;4.394;2022-11-20T00:16:09;166.32;;;51.72;;
23539;SDS011;11947;50.810;4.394;2022-11-20T00:18:40;185.37;;;54.03;;
23539;SDS011;11947;50.810;4.394;2022-11-20T00:21:20;194.50;;;52.70;;
23539;SDS011;11947;50.810;4.394;2022-11-20T00:23:53;178.70;;;52.63;;
23539;SDS011;11947;50.810;4.394;2022-11-20T00:26:24;177.82;;;53.15;;
23539;SDS011;11947;50.810;4.394;2022-11-20T00:28:56;176.77;;;50.55;;
23539;SDS011;11947;50.810;4.394;2022-11-20T00:31:23;179.85;;;51.83;;
23539;SDS011;11947;50.810;4.394;2022-11-20T00:33:52;172.63;;;52.45;;
23539;SDS011;11947;50.810;4.394;2022-11-20T00:36:21;170.02;;;51.33;;
23539;SDS011;11947;50.810;4.394;2022-11-20T00:38:53;171.93;;;51.58;;
23539;SDS011;11947;50.810;4.394;2022-11-20T00:41:20;172.05;;;51.53;;
23539;SDS011;11947;50.810;4.394;2022-11-20T00:43:46;171.20;;;52.40;;
23539;SDS011;11947;50.810;4.394;2022-11-20T00:46:15;179.02;;;52.30;;
23539;SDS011;11947;50.810;4.394;2022-11-20T00:48:45;176.52;;;52.70;;
23539;SDS011;11947;50.810;4.394;2022-11-20T00:51:15;187.27;;;52.58;;
23539;SDS011;11947;50.810;4.394;2022-11-20T00:53:43;178.67;;;52.03;;
23539;SDS011;11947;50.810;4.394;2022-11-20T00:56:12;171.95;;;51.00;;
23539;SDS011;11947;50.810;4.394;2022-11-20T01:19:23;162.52;;;49.60;;
23539;SDS011;11947;50.810;4.394;2022-11-20T01:21:50;177.90;;;51.08;;
23539;SDS011;11947;50.810;4.394;2022-11-20T01:24:18;172.25;;;50.33;;
23539;SDS011;11947;50.810;4.394;2022-11-20T01:26:48;165.57;;;49.22;;
23539;SDS011;11947;50.810;4.394;2022-11-20T01:29:22;175.07;;;50.28;;
23539;SDS011;11947;50.810;4.394;2022-11-20T01:34:26;158.70;;;48.63;;
23539;SDS011;11947;50.810;4.394;2022-11-20T01:36:52;168.38;;;49.75;;
23539;SDS011;11947;50.810;4.394;2022-11-20T01:39:19;167.30;;;48.60;;
23539;SDS011;11947;50.810;4.394;2022-11-20T01:41:50;167.98;;;49.33;;
23539;SDS011;11947;50.810;4.394;2022-11-20T01:47:20;179.68;;;48.80;;
23539;SDS011;11947;50.810;4.394;2022-11-20T01:50:08;167.95;;;49.35;;
23539;SDS011;11947;50.810;4.394;2022-11-20T01:52:49;177.00;;;49.90;;
23539;SDS011;11947;50.810;4.394;2022-11-20T01:55:24;182.45;;;49.55;;
23539;SDS011;11947;50.810;4.394;2022-11-20T01:57:56;170.98;;;50.90;;
23539;SDS011;11947;50.810;4.394;2022-11-20T02:00:22;198.80;;;52.28;;
23539;SDS011;11947;50.810;4.394;2022-11-20T02:02:53;184.10;;;50.83;;
23539;SDS011;11947;50.810;4.394;2022-11-20T02:05:35;187.18;;;51.20;;
23539;SDS011;11947;50.810;4.394;2022-11-20T02:08:06;174.65;;;50.22;;
23539;SDS011;11947;50.810;4.394;2022-11-20T02:10:35;203.57;;;55.60;;
23539;SDS011;11947;50.810;4.394;2022-11-20T02:13:01;190.95;;;55.15;;
23539;SDS011;11947;50.810;4.394;2022-11-20T02:15:47;193.45;;;53.50;;
23539;SDS011;11947;50.810;4.394;2022-11-20T02:18:13;185.55;;;52.65;;
23539;SDS011;11947;50.810;4.394;2022-11-20T02:20:46;201.93;;;53.85;;
23539;SDS011;11947;50.810;4.394;2022-11-20T02:23:16;178.82;;;49.00;;
23539;SDS011;11947;50.810;4.394;2022-11-20T02:25:53;179.55;;;50.00;;
23539;SDS011;11947;50.810;4.394;2022-11-20T02:28:20;181.45;;;49.33;;
23539;SDS011;11947;50.810;4.394;2022-11-20T02:30:47;191.10;;;49.60;;
23539;SDS011;11947;50.810;4.394;2022-11-20T02:33:18;186.55;;;51.20;;
23539;SDS011;11947;50.810;4.394;2022-11-20T02:35:45;194.88;;;50.45;;
23539;SDS011;11947;50.810;4.394;2022-11-20T02:38:12;192.55;;;50.58;;
23539;SDS011;11947;50.810;4.394;2022-11-20T02:40:41;196.18;;;49.92;;
23539;SDS011;11947;50.810;4.394;2022-11-20T02:43:07;184.23;;;48.58;;
23539;SDS011;11947;50.810;4.394;2022-11-20T02:45:34;191.15;;;47.55;;
23539;SDS011;11947;50.810;4.394;2022-11-20T02:48:00;186.68;;;46.03;;
23539;SDS011;11947;50.810;4.394;2022-11-20T02:50:25;178.98;;;45.55;;
23539;SDS011;11947;50.810;4.394;2022-11-20T02:53:12;171.90;;;44.63;;
23539;SDS011;11947;50.810;4.394;2022-11-20T02:55:37;175.80;;;43.50;;
23539;SDS011;11947;50.810;4.394;2022-11-20T02:58:03;165.63;;;42.30;;
23539;SDS011;11947;50.810;4.394;2022-11-20T03:00:28;149.27;;;40.75;;
23539;SDS011;11947;50.810;4.394;2022-11-20T03:41:39;130.38;;;34.63;;
23539;SDS011;11947;50.810;4.394;2022-11-20T03:44:06;132.07;;;35.55;;
23539;SDS011;11947;50.810;4.394;2022-11-20T03:46:35;131.20;;;35.72;;
23539;SDS011;11947;50.810;4.394;2022-11-20T03:49:02;131.13;;;35.63;;
23539;SDS011;11947;50.810;4.394;2022-11-20T03:51:29;133.25;;;36.45;;
23539;SDS011;11947;50.810;4.394;2022-11-20T03:53:57;144.95;;;38.20;;
23539;SDS011;11947;50.810;4.394;2022-11-20T03:56:25;140.65;;;37.35;;
23539;SDS011;11947;50.810;4.394;2022-11-20T03:58:53;141.30;;;37.15;;
23539;SDS011;11947;50.810;4.394;2022-11-20T04:01:20;148.43;;;37.35;;
23539;SDS011;11947;50.810;4.394;2022-11-20T04:03:47;140.63;;;36.92;;
23539;SDS011;11947;50.810;4.394;2022-11-20T04:06:15;133.65;;;36.80;;
23539;SDS011;11947;50.810;4.394;2022-11-20T04:08:55;145.40;;;37.70;;
23539;SDS011;11947;50.810;4.394;2022-11-20T04:11:25;166.27;;;40.88;;
23539;SDS011;11947;50.810;4.394;2022-11-20T04:14:05;156.75;;;39.63;;
23539;SDS011;11947;50.810;4.394;2022-11-20T04:16:37;151.68;;;38.58;;
23539;SDS011;11947;50.810;4.394;2022-11-20T04:19:06;157.07;;;38.58;;
23539;SDS011;11947;50.810;4.394;2022-11-20T04:21:35;139.70;;;37.15;;
23539;SDS011;11947;50.810;4.394;2022-11-20T04:24:04;155.95;;;39.05;;
23539;SDS011;11947;50.810;4.394;2022-11-20T04:26:33;154.63;;;38.95;;
23539;SDS011;11947;50.810;4.394;2022-11-20T04:28:59;155.10;;;39.03;;
23539;SDS011;11947;50.810;4.394;2022-11-20T04:31:30;164.13;;;40.47;;
23539;SDS011;11947;50.810;4.394;2022-11-20T04:34:04;168.07;;;40.67;;
23539;SDS011;11947;50.810;4.394;2022-11-20T04:36:31;163.52;;;39.55;;
23539;SDS011;11947;50.810;4.394;2022-11-20T04:39:01;169.98;;;41.13;;
23539;SDS011;11947;50.810;4.394;2022-11-20T04:41:30;147.90;;;39.38;;
23539;SDS011;11947;50.810;4.394;2022-11-20T04:43:58;163.32;;;41.20;;
23539;SDS011;11947;50.810;4.394;2022-11-20T04:46:28;187.40;;;41.97;;
23539;SDS011;11947;50.810;4.394;2022-11-20T04:48:55;177.27;;;42.10;;
23539;SDS011;11947;50.810;4.394;2022-11-20T04:51:24;195.20;;;41.90;;
23539;SDS011;11947;50.810;4.394;2022-11-20T04:53:50;182.73;;;42.75;;
23539;SDS011;11947;50.810;4.394;2022-11-20T04:56:21;198.40;;;43.20;;
23539;SDS011;11947;50.810;4.394;2022-11-20T04:58:47;203.30;;;43.65;;
23539;SDS011;11947;50.810;4.394;2022-11-20T05:04:15;191.77;;;42.30;;
23539;SDS011;11947;50.810;4.394;2022-11-20T05:06:44;191.27;;;42.70;;
23539;SDS011;11947;50.810;4.394;2022-11-20T05:09:13;191.80;;;42.63;;
23539;SDS011;11947;50.810;4.394;2022-11-20T05:11:38;196.75;;;42.80;;
23539;SDS011;11947;50.810;4.394;2022-11-20T05:14:07;206.50;;;42.22;;
23539;SDS011;11947;50.810;4.394;2022-11-20T05:16:33;188.85;;;42.55;;
23539;SDS011;11947;50.810;4.394;2022-11-20T05:19:01;212.73;;;43.88;;
23539;SDS011;11947;50.810;4.394;2022-11-20T05:21:30;199.82;;;42.88;;
23539;SDS011;11947;50.810;4.394;2022-11-20T05:23:57;212.07;;;43.65;;
23539;SDS011;11947;50.810;4.394;2022-11-20T05:26:23;196.95;;;41.72;;
23539;SDS011;11947;50.810;4.394;2022-11-20T05:28:52;201.15;;;43.15;;
23539;SDS011;11947;50.810;4.394;2022-11-20T05:31:21;191.32;;;40.80;;
23539;SDS011;11947;50.810;4.394;2022-11-20T05:33:48;197.65;;;42.10;;
23539;SDS011;11947;50.810;4.394;2022-11-20T05:36:14;219.07;;;43.00;;
23539;SDS011;11947;50.810;4.394;2022-11-20T05:38:41;210.07;;;43.30;;
23539;SDS011;11947;50.810;4.394;2022-11-20T05:41:09;218.45;;;41.92;;
23539;SDS011;11947;50.810;4.394;2022-11-20T05:43:37;214.43;;;44.65;;
23539;SDS011;11947;50.810;4.394;2022-11-20T05:46:05;220.95;;;42.90;;
23539;SDS011;11947;50.810;4.394;2022-11-20T05:48:32;218.02;;;44.60;;
23539;SDS011;11947;50.810;4.394;2022-11-20T05:51:02;201.85;;;42.20;;
23539;SDS011;11947;50.810;4.394;2022-11-20T05:53:31;216.63;;;42.55;;
23539;SDS011;11947;50.810;4.394;2022-11-20T05:56:01;224.25;;;43.63;;
23539;SDS011;11947;50.810;4.394;2022-11-20T05:58:29;1133.93;;;72.13;;
23539;SDS011;11947;50.810;4.394;2022-11-20T06:01:02;233.60;;;43.53;;
23539;SDS011;11947;50.810;4.394;2022-11-20T06:03:40;227.90;;;42.97;;
23539;SDS011;11947;50.810;4.394;2022-11-20T06:06:16;213.70;;;43.58;;
23539;SDS011;11947;50.810;4.394;2022-11-20T06:08:42;202.88;;;42.72;;
23539;SDS011;11947;50.810;4.394;2022-11-20T06:11:10;228.20;;;43.28;;
23539;SDS011;11947;50.810;4.394;2022-11-20T06:13:43;239.50;;;42.03;;
23539;SDS011;11947;50.810;4.394;2022-11-20T06:16:11;254.07;;;44.33;;
23539;SDS011;11947;50.810;4.394;2022-11-20T06:18:38;238.73;;;43.70;;
23539;SDS011;11947;50.810;4.394;2022-11-20T06:23:34;213.77;;;42.35;;
23539;SDS011;11947;50.810;4.394;2022-11-20T06:26:01;214.88;;;43.55;;
23539;SDS011;11947;50.810;4.394;2022-11-20T06:28:28;229.35;;;43.45;;
23539;SDS011;11947;50.810;4.394;2022-11-20T06:30:54;213.48;;;42.33;;
23539;SDS011;11947;50.810;4.394;2022-11-20T06:33:20;193.52;;;41.40;;
23539;SDS011;11947;50.810;4.394;2022-11-20T06:35:46;201.68;;;42.53;;
23539;SDS011;11947;50.810;4.394;2022-11-20T06:38:11;223.02;;;43.42;;
23539;SDS011;11947;50.810;4.394;2022-11-20T06:40:39;186.77;;;40.40;;
23539;SDS011;11947;50.810;4.394;2022-11-20T06:43:11;231.32;;;41.10;;
23539;SDS011;11947;50.810;4.394;2022-11-20T06:45:37;197.65;;;39.85;;
23539;SDS011;11947;50.810;4.394;2022-11-20T06:48:03;200.93;;;41.70;;
23539;SDS011;11947;50.810;4.394;2022-11-20T06:50:29;207.50;;;40.67;;
23539;SDS011;11947;50.810;4.394;2022-11-20T06:52:55;189.13;;;41.70;;
23539;SDS011;11947;50.810;4.394;2022-11-20T06:55:21;196.68;;;42.90;;
23539;SDS011;11947;50.810;4.394;2022-11-20T06:57:46;204.68;;;40.33;;
23539;SDS011;11947;50.810;4.394;2022-11-20T07:00:12;174.93;;;39.13;;
23539;SDS011;11947;50.810;4.394;2022-11-20T07:02:39;196.43;;;39.80;;
23539;SDS011;11947;50.810;4.394;2022-11-20T07:05:05;198.75;;;40.67;;
23539;SDS011;11947;50.810;4.394;2022-11-20T07:07:31;182.88;;;39.65;;
23539;SDS011;11947;50.810;4.394;2022-11-20T07:09:57;187.98;;;37.85;;
23539;SDS011;11947;50.810;4.394;2022-11-20T07:12:22;187.65;;;39.45;;
23539;SDS011;11947;50.810;4.394;2022-11-20T07:14:48;188.77;;;40.33;;
23539;SDS011;11947;50.810;4.394;2022-11-20T07:17:13;200.40;;;39.13;;
23539;SDS011;11947;50.810;4.394;2022-11-20T07:19:39;186.90;;;37.70;;
23539;SDS011;11947;50.810;4.394;2022-11-20T07:22:05;178.02;;;39.05;;
23539;SDS011;11947;50.810;4.394;2022-11-20T07:24:31;180.10;;;39.53;;
23539;SDS011;11947;50.810;4.394;2022-11-20T07:26:56;174.02;;;37.75;;
23539;SDS011;11947;50.810;4.394;2022-11-20T07:29:22;169.50;;;38.47;;
23539;SDS011;11947;50.810;4.394;2022-11-20T07:31:48;159.93;;;37.85;;
23539;SDS011;11947;50.810;4.394;2022-11-20T07:34:13;173.60;;;38.83;;
23539;SDS011;11947;50.810;4.394;2022-11-20T07:36:39;161.45;;;36.55;;
23539;SDS011;11947;50.810;4.394;2022-11-20T07:39:05;158.60;;;35.58;;
23539;SDS011;11947;50.810;4.394;2022-11-20T07:41:30;160.32;;;37.08;;
23539;SDS011;11947;50.810;4.394;2022-11-20T07:43:56;332.00;;;43.33;;
23539;SDS011;11947;50.810;4.394;2022-11-20T07:46:24;164.77;;;39.38;;
23539;SDS011;11947;50.810;4.394;2022-11-20T07:48:50;176.32;;;39.00;;
23539;SDS011;11947;50.810;4.394;2022-11-20T07:51:36;179.10;;;40.72;;
23539;SDS011;11947;50.810;4.394;2022-11-20T07:54:05;178.75;;;39.33;;
23539;SDS011;11947;50.810;4.394;2022-11-20T07:56:31;172.93;;;37.63;;
23539;SDS011;11947;50.810;4.394;2022-11-20T07:58:59;164.20;;;37.40;;
23539;SDS011;11947;50.810;4.394;2022-11-20T08:01:25;165.40;;;36.30;;
23539;SDS011;11947;50.810;4.394;2022-11-20T08:03:51;172.05;;;36.42;;
23539;SDS011;11947;50.810;4.394;2022-11-20T08:06:16;160.27;;;35.97;;
23539;SDS011;11947;50.810;4.394;2022-11-20T08:08:45;161.80;;;36.35;;
23539;SDS011;11947;50.810;4.394;2022-11-20T08:11:10;166.35;;;35.65;;
23539;SDS011;11947;50.810;4.394;2022-11-20T08:13:54;159.05;;;36.15;;
23539;SDS011;11947;50.810;4.394;2022-11-20T08:16:39;151.65;;;35.15;;
23539;SDS011;11947;50.810;4.394;2022-11-20T08:19:04;166.77;;;38.28;;
23539;SDS011;11947;50.810;4.394;2022-11-20T08:21:30;167.10;;;37.78;;
23539;SDS011;11947;50.810;4.394;2022-11-20T08:23:57;155.35;;;35.92;;
23539;SDS011;11947;50.810;4.394;2022-11-20T08:26:26;166.20;;;37.97;;
23539;SDS011;11947;50.810;4.394;2022-11-20T08:28:55;151.85;;;36.60;;
23539;SDS011;11947;50.810;4.394;2022-11-20T08:31:25;151.38;;;36.65;;
23539;SDS011;11947;50.810;4.394;2022-11-20T08:33:54;158.27;;;36.60;;
23539;SDS011;11947;50.810;4.394;2022-11-20T08:36:22;161.43;;;35.60;;
23539;SDS011;11947;50.810;4.394;2022-11-20T08:38:58;153.73;;;35.92;;
23539;SDS011;11947;50.810;4.394;2022-11-20T08:41:23;143.48;;;35.58;;
23539;SDS011;11947;50.810;4.394;2022-11-20T08:43:50;155.23;;;35.45;;
23539;SDS011;11947;50.810;4.394;2022-11-20T08:46:27;154.63;;;34.47;;
23539;SDS011;11947;50.810;4.394;2022-11-20T08:49:04;152.80;;;35.60;;
23539;SDS011;11947;50.810;4.394;2022-11-20T08:51:31;140.32;;;33.15;;
23539;SDS011;11947;50.810;4.394;2022-11-20T08:53:57;136.75;;;34.67;;
23539;SDS011;11947;50.810;4.394;2022-11-20T08:56:23;131.98;;;33.42;;
23539;SDS011;11947;50.810;4.394;2022-11-20T08:58:50;128.40;;;34.08;;
23539;SDS011;11947;50.810;4.394;2022-11-20T09:01:19;129.93;;;33.85;;
23539;SDS011;11947;50.810;4.394;2022-11-20T09:03:48;125.43;;;33.10;;
23539;SDS011;11947;50.810;4.394;2022-11-20T09:06:14;113.43;;;32.58;;
23539;SDS011;11947;50.810;4.394;2022-11-20T09:08:43;128.77;;;33.50;;
23539;SDS011;11947;50.810;4.394;2022-11-20T09:11:11;103.10;;;30.90;;
23539;SDS011;11947;50.810;4.394;2022-11-20T09:13:40;113.00;;;32.13;;
23539;SDS011;11947;50.810;4.394;2022-11-20T09:16:09;112.20;;;30.63;;
23539;SDS011;11947;50.810;4.394;2022-11-20T09:18:38;119.07;;;32.72;;
23539;SDS011;11947;50.810;4.394;2022-11-20T09:21:08;101.53;;;30.95;;
23539;SDS011;11947;50.810;4.394;2022-11-20T09:23:36;98.40;;;31.13;;
23539;SDS011;11947;50.810;4.394;2022-11-20T09:26:09;91.88;;;28.98;;
23539;SDS011;11947;50.810;4.394;2022-11-20T09:28:37;94.55;;;29.48;;
23539;SDS011;11947;50.810;4.394;2022-11-20T09:31:04;88.32;;;29.08;;
23539;SDS011;11947;50.810;4.394;2022-11-20T09:33:31;89.72;;;28.52;;
23539;SDS011;11947;50.810;4.394;2022-11-20T09:35:57;77.78;;;26.17;;
23539;SDS011;11947;50.810;4.394;2022-11-20T09:38:23;72.03;;;25.50;;
23539;SDS011;11947;50.810;4.394;2022-11-20T09:54:31;270.75;;;29.17;;
23539;SDS011;11947;50.810;4.394;2022-11-20T09:57:02;59.75;;;22.25;;
23539;SDS011;11947;50.810;4.394;2022-11-20T10:02:03;53.70;;;21.13;;
23539;SDS011;11947;50.810;4.394;2022-11-20T10:05:44;51.75;;;20.80;;
23539;SDS011;11947;50.810;4.394;2022-11-20T10:24:29;36.67;;;15.30;;
23539;SDS011;11947;50.810;4.394;2022-11-20T10:32:37;31.67;;;13.05;;
23539;SDS011;11947;50.810;4.394;2022-11-20T10:35:41;29.45;;;11.93;;
23539;SDS011;11947;50.810;4.394;2022-11-20T10:38:14;25.10;;;10.07;;
23539;SDS011;11947;50.810;4.394;2022-11-20T10:40:56;23.80;;;9.33;;
23539;SDS011;11947;50.810;4.394;2022-11-20T10:43:45;21.42;;;8.75;;
23539;SDS011;11947;50.810;4.394;2022-11-20T10:46:19;20.73;;;9.07;;
23539;SDS011;11947;50.810;4.394;2022-11-20T11:01:45;18.00;;;6.13;;
23539;SDS011;11947;50.810;4.394;2022-11-20T11:08:05;13.27;;;5.40;;
23539;SDS011;11947;50.810;4.394;2022-11-20T11:10:53;14.48;;;5.15;;
23539;SDS011;11947;50.810;4.394;2022-11-20T11:13:29;13.95;;;5.20;;
23539;SDS011;11947;50.810;4.394;2022-11-20T11:15:55;10.00;;;4.75;;
23539;SDS011;11947;50.810;4.394;2022-11-20T11:18:22;14.40;;;5.03;;
23539;SDS011;11947;50.810;4.394;2022-11-20T11:21:00;13.35;;;5.03;;
23539;SDS011;11947;50.810;4.394;2022-11-20T11:23:41;16.42;;;4.78;;
23539;SDS011;11947;50.810;4.394;2022-11-20T11:29:35;17.05;;;5.05;;
23539;SDS011;11947;50.810;4.394;2022-11-20T11:34:44;15.07;;;5.38;;
23539;SDS011;11947;50.810;4.394;2022-11-20T11:37:14;15.07;;;5.45;;
23539;SDS011;11947;50.810;4.394;2022-11-20T11:39:44;13.00;;;4.47;;
23539;SDS011;11947;50.810;4.394;2022-11-20T11:42:40;11.80;;;5.00;;
23539;SDS011;11947;50.810;4.394;2022-11-20T11:45:22;17.98;;;5.35;;
23539;SDS011;11947;50.810;4.394;2022-11-20T11:47:49;11.38;;;4.80;;
23539;SDS011;11947;50.810;4.394;2022-11-20T11:50:24;12.18;;;4.15;;
23539;SDS011;11947;50.810;4.394;2022-11-20T11:55:37;12.80;;;3.78;;
23539;SDS011;11947;50.810;4.394;2022-11-20T11:58:33;11.23;;;4.80;;
23539;SDS011;11947;50.810;4.394;2022-11-20T12:01:18;10.30;;;4.40;;
23539;SDS011;11947;50.810;4.394;2022-11-20T12:03:55;13.63;;;4.47;;
23539;SDS011;11947;50.810;4.394;2022-11-20T12:09:31;14.27;;;4.80;;
23539;SDS011;11947;50.810;4.394;2022-11-20T12:12:15;10.77;;;4.97;;
23539;SDS011;11947;50.810;4.394;2022-11-20T12:14:47;14.63;;;5.05;;
23539;SDS011;11947;50.810;4.394;2022-11-20T12:17:18;20.45;;;4.82;;
23539;SDS011;11947;50.810;4.394;2022-11-20T12:19:44;13.15;;;4.57;;
23539;SDS011;11947;50.810;4.394;2022-11-20T12:22:34;14.23;;;5.18;;
23539;SDS011;11947;50.810;4.394;2022-11-20T12:25:12;18.70;;;5.20;;
23539;SDS011;11947;50.810;4.394;2022-11-20T12:36:27;11.43;;;4.82;;
23539;SDS011;11947;50.810;4.394;2022-11-20T12:45:12;13.82;;;5.75;;
23539;SDS011;11947;50.810;4.394;2022-11-20T12:50:19;16.80;;;5.60;;
23539;SDS011;11947;50.810;4.394;2022-11-20T12:53:27;13.75;;;5.43;;
23539;SDS011;11947;50.810;4.394;2022-11-20T13:07:10;13.13;;;4.95;;
23539;SDS011;11947;50.810;4.394;2022-11-20T13:09:40;15.10;;;5.13;;
23539;SDS011;11947;50.810;4.394;2022-11-20T13:12:13;16.95;;;5.63;;
23539;SDS011;11947;50.810;4.394;2022-11-20T13:17:59;13.40;;;5.22;;
23539;SDS011;11947;50.810;4.394;2022-11-20T13:20:26;15.10;;;5.70;;
23539;SDS011;11947;50.810;4.394;2022-11-20T13:22:54;14.95;;;5.50;;
23539;SDS011;11947;50.810;4.394;2022-11-20T13:28:01;17.00;;;6.60;;
23539;SDS011;11947;50.810;4.394;2022-11-20T13:30:48;9.88;;;5.05;;
23539;SDS011;11947;50.810;4.394;2022-11-20T13:33:22;12.02;;;6.13;;
23539;SDS011;11947;50.810;4.394;2022-11-20T13:36:05;14.32;;;6.07;;
23539;SDS011;11947;50.810;4.394;2022-11-20T13:39:07;11.73;;;5.35;;
23539;SDS011;11947;50.810;4.394;2022-11-20T13:41:34;11.23;;;5.32;;
23539;SDS011;11947;50.810;4.394;2022-11-20T13:47:02;11.93;;;5.05;;
23539;SDS011;11947;50.810;4.394;2022-11-20T13:52:07;13.13;;;4.97;;
23539;SDS011;11947;50.810;4.394;2022-11-20T14:01:35;10.05;;;5.25;;
23539;SDS011;11947;50.810;4.394;2022-11-20T14:03:48;13.85;;;4.95;;
23539;SDS011;11947;50.810;4.394;2022-11-20T14:06:27;9.93;;;4.68;;
23539;SDS011;11947;50.810;4.394;2022-11-20T14:08:56;11.77;;;4.70;;
23539;SDS011;11947;50.810;4.394;2022-11-20T14:11:27;13.43;;;4.57;;
23539;SDS011;11947;50.810;4.394;2022-11-20T14:16:38;9.52;;;4.65;;
23539;SDS011;11947;50.810;4.394;2022-11-20T14:21:47;8.50;;;4.97;;
23539;SDS011;11947;50.810;4.394;2022-11-20T14:24:14;8.32;;;4.40;;
23539;SDS011;11947;50.810;4.394;2022-11-20T14:26:56;7.57;;;4.40;;
23539;SDS011;11947;50.810;4.394;2022-11-20T14:29:28;7.28;;;4.50;;
23539;SDS011;11947;50.810;4.394;2022-11-20T14:32:13;11.15;;;4.70;;
23539;SDS011;11947;50.810;4.394;2022-11-20T14:34:41;6.90;;;4.05;;
23539;SDS011;11947;50.810;4.394;2022-11-20T14:37:11;7.15;;;4.50;;
23539;SDS011;11947;50.810;4.394;2022-11-20T14:39:42;11.32;;;4.78;;
23539;SDS011;11947;50.810;4.394;2022-11-20T14:42:35;9.98;;;5.65;;
23539;SDS011;11947;50.810;4.394;2022-11-20T14:44:59;15.93;;;7.75;;
23539;SDS011;11947;50.810;4.394;2022-11-20T14:47:30;10.52;;;5.10;;
23539;SDS011;11947;50.810;4.394;2022-11-20T14:49:56;8.80;;;4.90;;
23539;SDS011;11947;50.810;4.394;2022-11-20T14:52:24;11.27;;;6.38;;
23539;SDS011;11947;50.810;4.394;2022-11-20T14:54:52;10.60;;;5.53;;
23539;SDS011;11947;50.810;4.394;2022-11-20T14:57:26;9.68;;;5.55;;
23539;SDS011;11947;50.810;4.394;2022-11-20T15:00:08;10.32;;;5.70;;
23539;SDS011;11947;50.810;4.394;2022-11-20T15:02:45;10.02;;;5.53;;
23539;SDS011;11947;50.810;4.394;2022-11-20T15:05:15;15.18;;;6.60;;
23539;SDS011;11947;50.810;4.394;2022-11-20T15:07:45;14.50;;;7.00;;
23539;SDS011;11947;50.810;4.394;2022-11-20T15:10:20;17.50;;;8.20;;
23539;SDS011;11947;50.810;4.394;2022-11-20T15:12:55;13.38;;;7.53;;
23539;SDS011;11947;50.810;4.394;2022-11-20T15:15:27;13.93;;;7.40;;
23539;SDS011;11947;50.810;4.394;2022-11-20T15:18:00;17.30;;;7.07;;
23539;SDS011;11947;50.810;4.394;2022-11-20T15:20:27;19.70;;;9.70;;
23539;SDS011;11947;50.810;4.394;2022-11-20T15:22:56;17.73;;;8.38;;
23539;SDS011;11947;50.810;4.394;2022-11-20T15:25:21;17.88;;;9.20;;
23539;SDS011;11947;50.810;4.394;2022-11-20T15:27:50;22.05;;;10.45;;
23539;SDS011;11947;50.810;4.394;2022-11-20T15:30:19;100.35;;;19.00;;
23539;SDS011;11947;50.810;4.394;2022-11-20T15:32:46;29.23;;;15.13;;
23539;SDS011;11947;50.810;4.394;2022-11-20T15:35:12;17.85;;;8.38;;
23539;SDS011;11947;50.810;4.394;2022-11-20T15:37:41;33.55;;;18.33;;
23539;SDS011;11947;50.810;4.394;2022-11-20T15:40:07;23.95;;;9.77;;
23539;SDS011;11947;50.810;4.394;2022-11-20T15:42:34;41.92;;;22.95;;
23539;SDS011;11947;50.810;4.394;2022-11-20T15:45:00;19.73;;;9.45;;
23539;SDS011;11947;50.810;4.394;2022-11-20T15:47:33;24.50;;;12.93;;
23539;SDS011;11947;50.810;4.394;2022-11-20T15:50:00;23.95;;;11.70;;
23539;SDS011;11947;50.810;4.394;2022-11-20T15:52:26;19.55;;;9.07;;
23539;SDS011;11947;50.810;4.394;2022-11-20T15:54:54;19.25;;;9.38;;
23539;SDS011;11947;50.810;4.394;2022-11-20T15:57:19;43.03;;;23.05;;
23539;SDS011;11947;50.810;4.394;2022-11-20T15:59:45;19.50;;;10.25;;
23539;SDS011;11947;50.810;4.394;2022-11-20T16:02:11;31.63;;;9.70;;
23539;SDS011;11947;50.810;4.394;2022-11-20T16:04:37;29.50;;;13.85;;
23539;SDS011;11947;50.810;4.394;2022-11-20T16:07:03;25.35;;;10.82;;
23539;SDS011;11947;50.810;4.394;2022-11-20T16:09:29;33.17;;;12.77;;
23539;SDS011;11947;50.810;4.394;2022-11-20T16:11:55;19.67;;;7.75;;
23539;SDS011;11947;50.810;4.394;2022-11-20T16:14:23;27.42;;;8.88;;
23539;SDS011;11947;50.810;4.394;2022-11-20T16:17:07;25.45;;;8.95;;
23539;SDS011;11947;50.810;4.394;2022-11-20T16:19:33;25.13;;;7.50;;
23539;SDS011;11947;50.810;4.394;2022-11-20T16:21:58;21.25;;;7.18;;
23539;SDS011;11947;50.810;4.394;2022-11-20T16:24:26;30.10;;;12.57;;
23539;SDS011;11947;50.810;4.394;2022-11-20T16:26:53;32.35;;;8.57;;
23539;SDS011;11947;50.810;4.394;2022-11-20T16:29:22;22.25;;;6.53;;
23539;SDS011;11947;50.810;4.394;2022-11-20T16:31:48;20.50;;;5.93;;
23539;SDS011;11947;50.810;4.394;2022-11-20T16:34:16;26.42;;;6.22;;
23539;SDS011;11947;50.810;4.394;2022-11-20T16:36:43;21.63;;;6.10;;
23539;SDS011;11947;50.810;4.394;2022-11-20T16:39:10;27.98;;;8.02;;
23539;SDS011;11947;50.810;4.394;2022-11-20T16:41:38;29.67;;;6.43;;
23539;SDS011;11947;50.810;4.394;2022-11-20T16:44:08;28.85;;;7.28;;
23539;SDS011;11947;50.810;4.394;2022-11-20T16:46:37;27.67;;;7.47;;
23539;SDS011;11947;50.810;4.394;2022-11-20T16:49:06;29.63;;;7.28;;
23539;SDS011;11947;50.810;4.394;2022-11-20T16:51:36;33.13;;;8.65;;
23539;SDS011;11947;50.810;4.394;2022-11-20T16:54:02;31.30;;;7.25;;
23539;SDS011;11947;50.810;4.394;2022-11-20T16:56:32;34.45;;;7.32;;
23539;SDS011;11947;50.810;4.394;2022-11-20T16:58:59;34.20;;;7.68;;
23539;SDS011;11947;50.810;4.394;2022-11-20T17:01:25;37.15;;;6.97;;
23539;SDS011;11947;50.810;4.394;2022-11-20T17:03:56;30.75;;;7.78;;
23539;SDS011;11947;50.810;4.394;2022-11-20T17:06:27;33.13;;;7.80;;
23539;SDS011;11947;50.810;4.394;2022-11-20T17:08:54;67.22;;;25.58;;
23539;SDS011;11947;50.810;4.394;2022-11-20T17:11:21;45.53;;;11.18;;
23539;SDS011;11947;50.810;4.394;2022-11-20T17:13:47;40.38;;;9.45;;
23539;SDS011;11947;50.810;4.394;2022-11-20T17:16:17;39.30;;;10.10;;
23539;SDS011;11947;50.810;4.394;2022-11-20T17:18:45;61.40;;;19.75;;
23539;SDS011;11947;50.810;4.394;2022-11-20T17:21:13;44.78;;;14.30;;
23539;SDS011;11947;50.810;4.394;2022-11-20T17:23:40;48.17;;;18.25;;
23539;SDS011;11947;50.810;4.394;2022-11-20T17:26:11;51.00;;;13.25;;
23539;SDS011;11947;50.810;4.394;2022-11-20T17:28:40;44.42;;;11.15;;
23539;SDS011;11947;50.810;4.394;2022-11-20T17:31:09;34.88;;;9.30;;
23539;SDS011;11947;50.810;4.394;2022-11-20T17:33:40;40.53;;;9.65;;
23539;SDS011;11947;50.810;4.394;2022-11-20T17:36:08;39.13;;;9.68;;
23539;SDS011;11947;50.810;4.394;2022-11-20T17:38:34;38.80;;;12.00;;
23539;SDS011;11947;50.810;4.394;2022-11-20T17:41:02;50.08;;;17.65;;
23539;SDS011;11947;50.810;4.394;2022-11-20T17:43:32;51.22;;;18.10;;
23539;SDS011;11947;50.810;4.394;2022-11-20T17:45:58;42.55;;;10.63;;
23539;SDS011;11947;50.810;4.394;2022-11-20T17:48:24;31.00;;;9.40;;